Time;durP1;ratioP1;P1;durP2;ratioP2;P2;SDS_P1;SDS_P2;PMS_P1;PMS_P2;Temp;Humidity;BMP_temperature;BMP_pressure;BME280_temperature;BME280_humidity;BME280_pressure;Samples;Min_cycle;Max_cycle;Signal;HPM_P1;HPM_P2
2022/08/21 00:00:51;;;;;;;7.60;3.42;;;17.20;99.90;;;;;;5073826;28;20068;-47
2022/08/21 00:03:17;;;;;;;8.38;2.60;;;17.20;99.90;;;;;;5072722;28;20028;-50
2022/08/21 00:05:49;;;;;;;3.35;2.38;;;17.10;99.90;;;;;;5073168;28;20072;-48
2022/08/21 00:08:16;;;;;;;8.60;2.47;;;17.10;99.90;;;;;;5072757;28;20398;-48
2022/08/21 00:10:43;;;;;;;5.97;2.95;;;17.00;99.90;;;;;;5073160;28;20458;-48
2022/08/21 00:13:09;;;;;;;4.28;1.80;;;16.90;99.90;;;;;;5073092;28;20494;-48
2022/08/21 00:15:36;;;;;;;7.53;2.92;;;16.90;99.90;;;;;;5071395;28;20081;-49
2022/08/21 00:18:04;;;;;;;3.45;2.60;;;16.80;99.90;;;;;;5071848;28;20172;-48
2022/08/21 00:20:30;;;;;;;1.77;1.42;;;16.80;99.90;;;;;;5073279;28;20079;-47
2022/08/21 00:22:55;;;;;;;2.65;0.75;;;16.70;99.90;;;;;;5072384;28;20076;-48
2022/08/21 00:25:22;;;;;;;2.50;1.77;;;16.60;99.90;;;;;;5073204;28;20048;-47
2022/08/21 00:27:48;;;;;;;5.57;2.47;;;16.50;99.90;;;;;;5072730;28;20101;-47
2022/08/21 00:30:15;;;;;;;5.82;2.97;;;16.50;99.90;;;;;;5072788;28;20493;-48
2022/08/21 00:32:41;;;;;;;3.15;2.00;;;16.40;99.90;;;;;;5073266;28;20036;-49
2022/08/21 00:35:11;;;;;;;1.25;0.60;;;16.40;99.90;;;;;;5072014;28;20553;-47
2022/08/21 00:37:37;;;;;;;2.85;1.20;;;16.30;99.90;;;;;;5072117;28;20612;-48
2022/08/21 00:40:04;;;;;;;0.80;0.60;;;16.20;99.90;;;;;;5072671;28;20119;-47
2022/08/21 00:42:30;;;;;;;1.25;1.10;;;16.20;99.90;;;;;;5072722;28;20171;-47
2022/08/21 00:44:56;;;;;;;4.10;2.03;;;16.20;99.90;;;;;;5072321;28;20507;-47
2022/08/21 00:47:21;;;;;;;;;;;16.20;99.90;;;;;;5072793;28;20418;-47
2022/08/21 00:49:47;;;;;;;5.25;2.40;;;16.10;99.90;;;;;;5072558;28;19917;-48
2022/08/21 00:52:18;;;;;;;2.97;1.52;;;16.20;99.90;;;;;;5055257;28;20041;-49
2022/08/21 00:54:45;;;;;;;3.28;2.50;;;16.10;99.90;;;;;;5071192;28;20437;-47
2022/08/21 00:57:23;;;;;;;2.55;2.20;;;16.10;99.90;;;;;;5072772;28;20497;-47
2022/08/21 00:59:53;;;;;;;2.40;2.17;;;16.10;99.90;;;;;;5072473;28;20040;-47
2022/08/21 01:02:20;;;;;;;6.57;3.10;;;16.10;99.90;;;;;;5072837;28;20044;-47
2022/08/21 01:04:47;;;;;;;4.18;2.95;;;16.10;99.90;;;;;;5071644;28;20036;-47
2022/08/21 01:07:13;;;;;;;3.17;2.88;;;16.10;99.90;;;;;;5072041;28;20435;-47
2022/08/21 01:09:38;;;;;;;4.28;3.00;;;16.00;99.90;;;;;;5072331;28;20036;-48
2022/08/21 01:12:05;;;;;;;2.80;2.22;;;16.00;99.90;;;;;;5072391;28;20500;-47
2022/08/21 01:14:30;;;;;;;3.65;2.20;;;16.00;99.90;;;;;;5071661;28;20037;-48
2022/08/21 01:16:57;;;;;;;1.25;1.15;;;15.90;99.90;;;;;;5072650;28;20047;-47
2022/08/21 01:19:24;;;;;;;4.75;1.50;;;15.90;99.90;;;;;;5071007;28;20505;-47
2022/08/21 01:21:50;;;;;;;1.98;1.65;;;15.80;99.90;;;;;;5072291;28;20515;-47
2022/08/21 01:24:15;;;;;;;3.65;3.20;;;15.80;99.90;;;;;;5071733;28;20115;-47
2022/08/21 01:26:41;;;;;;;2.95;2.35;;;15.70;99.90;;;;;;5071664;28;20040;-48
2022/08/21 01:29:35;;;;;;;4.25;3.22;;;15.70;99.90;;;;;;5071796;28;20071;-48
2022/08/21 01:32:12;;;;;;;1.10;1.00;;;15.70;99.90;;;;;;5072215;28;20432;-46
2022/08/21 01:34:41;;;;;;;2.00;1.00;;;15.70;99.90;;;;;;5071223;28;20036;-47
2022/08/21 01:37:07;;;;;;;3.88;2.17;;;15.60;99.90;;;;;;5071825;28;20162;-47
2022/08/21 01:39:33;;;;;;;5.53;2.65;;;15.60;99.90;;;;;;5071580;28;20522;-48
2022/08/21 01:41:59;;;;;;;1.73;1.17;;;15.60;99.90;;;;;;5071084;28;20040;-49
2022/08/21 01:44:25;;;;;;;3.50;2.40;;;15.60;99.90;;;;;;5070780;28;20089;-47
2022/08/21 01:46:51;;;;;;;;;;;15.60;99.90;;;;;;5071859;28;20044;-48
2022/08/21 01:49:17;;;;;;;5.60;2.60;;;15.50;99.90;;;;;;5071536;28;20012;-48
2022/08/21 01:51:43;;;;;;;2.20;2.00;;;15.50;99.90;;;;;;5071074;28;20078;-48
2022/08/21 01:54:10;;;;;;;3.30;2.53;;;15.40;99.90;;;;;;5071199;28;20445;-47
2022/08/21 01:56:42;;;;;;;2.55;2.35;;;15.40;99.90;;;;;;5071023;28;20139;-47
2022/08/21 01:59:08;;;;;;;2.65;0.70;;;15.30;99.90;;;;;;5071183;28;20351;-48
2022/08/21 02:01:33;;;;;;;2.40;1.58;;;15.30;99.90;;;;;;5070698;28;20087;-48
2022/08/21 02:03:59;;;;;;;3.47;2.38;;;15.20;99.90;;;;;;5071053;28;20040;-48
2022/08/21 02:06:25;;;;;;;3.30;2.03;;;15.20;99.90;;;;;;5070180;28;20153;-48
2022/08/21 02:08:51;;;;;;;1.90;1.77;;;15.20;99.90;;;;;;5071446;28;20041;-47
2022/08/21 02:11:17;;;;;;;;;;;15.10;99.90;;;;;;5070768;28;20482;-48
2022/08/21 02:13:42;;;;;;;2.63;2.17;;;15.10;99.90;;;;;;5070287;28;19920;-47
2022/08/21 02:16:08;;;;;;;2.30;1.40;;;15.10;99.90;;;;;;5070997;28;20098;-47
2022/08/21 02:18:34;;;;;;;0.88;0.88;;;15.10;99.90;;;;;;5070728;28;20075;-47
2022/08/21 02:21:00;;;;;;;;;;;15.10;99.90;;;;;;5071571;28;20037;-46
2022/08/21 02:23:26;;;;;;;5.90;2.10;;;15.00;99.90;;;;;;5070463;28;20339;-48
2022/08/21 02:25:51;;;;;;;5.72;2.67;;;15.00;99.90;;;;;;5070208;28;20032;-47
2022/08/21 02:28:17;;;;;;;7.05;2.92;;;14.90;99.90;;;;;;5070313;28;20044;-47
2022/08/21 02:30:46;;;;;;;4.15;2.35;;;14.90;99.90;;;;;;5070891;28;20076;-47
2022/08/21 02:33:12;;;;;;;0.90;0.90;;;14.80;99.90;;;;;;5070091;28;20544;-48
2022/08/21 02:35:41;;;;;;;3.53;3.17;;;14.80;99.90;;;;;;5070498;28;20044;-48
2022/08/21 02:38:14;;;;;;;1.63;1.52;;;14.80;99.90;;;;;;5070316;28;20072;-47
2022/08/21 02:40:44;;;;;;;1.77;1.67;;;14.70;99.90;;;;;;5070181;28;20144;-47
2022/08/21 02:43:10;;;;;;;3.00;2.58;;;14.70;99.90;;;;;;5069820;28;20036;-47
2022/08/21 02:45:36;;;;;;;;;;;14.70;99.90;;;;;;5070527;28;20048;-48
2022/08/21 02:48:05;;;;;;;2.53;2.33;;;14.60;99.90;;;;;;5069116;28;20194;-47
2022/08/21 02:50:42;;;;;;;4.72;2.80;;;14.60;99.90;;;;;;5070414;28;20050;-47
2022/08/21 02:53:09;;;;;;;4.05;3.33;;;14.50;99.90;;;;;;5069655;28;20090;-47
2022/08/21 02:55:37;;;;;;;2.22;2.13;;;14.50;99.90;;;;;;5070437;28;20484;-47
2022/08/21 02:58:05;;;;;;;4.50;3.20;;;14.50;99.90;;;;;;5069850;28;20036;-49
2022/08/21 03:00:32;;;;;;;4.88;4.45;;;14.60;99.90;;;;;;5070612;28;20135;-47
2022/08/21 03:02:59;;;;;;;6.57;3.22;;;14.50;99.90;;;;;;5070305;28;20036;-47
2022/08/21 03:05:27;;;;;;;6.85;4.07;;;14.40;99.90;;;;;;5069638;28;20032;-47
2022/08/21 03:07:53;;;;;;;5.72;4.38;;;14.40;99.90;;;;;;5069835;28;20057;-47
2022/08/21 03:10:19;;;;;;;8.18;4.07;;;14.40;99.90;;;;;;5070041;28;20075;-47
2022/08/21 03:12:46;;;;;;;;;;;14.30;99.90;;;;;;5069700;28;20493;-48
2022/08/21 03:15:13;;;;;;;2.50;2.30;;;14.30;99.90;;;;;;5070074;28;20006;-46
2022/08/21 03:17:39;;;;;;;2.17;1.98;;;14.20;99.90;;;;;;5065116;28;20036;-47
2022/08/21 03:20:06;;;;;;;9.20;4.13;;;14.10;99.90;;;;;;5069589;28;20032;-47
2022/08/21 03:22:32;;;;;;;24.67;5.70;;;14.20;99.90;;;;;;5069603;28;20571;-47
2022/08/21 03:24:59;;;;;;;3.97;3.67;;;14.10;99.90;;;;;;5069553;28;20033;-47
2022/08/21 03:27:26;;;;;;;33.55;6.45;;;14.10;99.90;;;;;;5069314;28;20402;-47
2022/08/21 03:29:52;;;;;;;8.35;4.60;;;14.10;99.90;;;;;;5069727;28;20039;-48
2022/08/21 03:32:19;;;;;;;;;;;14.10;99.90;;;;;;5070412;28;20379;-48
2022/08/21 03:34:45;;;;;;;3.50;3.30;;;14.10;99.90;;;;;;5069001;28;19969;-47
2022/08/21 03:37:12;;;;;;;3.83;2.55;;;14.00;99.90;;;;;;5069504;28;20036;-47
2022/08/21 03:39:37;;;;;;;6.05;3.85;;;14.00;99.90;;;;;;5070038;28;20043;-47
2022/08/21 03:42:04;;;;;;;5.63;3.40;;;13.90;99.90;;;;;;5069547;28;20132;-48
2022/08/21 03:44:30;;;;;;;4.05;3.65;;;13.90;99.90;;;;;;5069295;28;20139;-46
2022/08/21 03:46:57;;;;;;;5.75;3.92;;;13.90;99.90;;;;;;5069143;28;20044;-48
2022/08/21 03:49:23;;;;;;;6.00;3.80;;;13.90;99.90;;;;;;5069192;28;20542;-47
2022/08/21 03:51:49;;;;;;;8.43;6.47;;;13.90;99.90;;;;;;5069761;28;20040;-47
2022/08/21 03:54:15;;;;;;;6.97;5.10;;;13.90;99.90;;;;;;5069447;28;20042;-47
2022/08/21 03:56:40;;;;;;;6.25;5.00;;;13.90;99.90;;;;;;5069711;28;20036;-47
2022/08/21 03:59:06;;;;;;;5.90;5.25;;;13.90;99.90;;;;;;5069300;28;20033;-48
2022/08/21 04:01:32;;;;;;;9.73;6.03;;;13.90;99.90;;;;;;5069642;28;20047;-47
2022/08/21 04:03:58;;;;;;;6.35;5.75;;;13.90;99.90;;;;;;5068552;28;20555;-47
2022/08/21 04:06:24;;;;;;;10.82;8.10;;;13.90;99.90;;;;;;5069697;28;20033;-47
2022/08/21 04:08:50;;;;;;;9.73;7.95;;;14.00;99.90;;;;;;5067680;28;20188;-48
2022/08/21 04:11:15;;;;;;;9.77;7.85;;;14.00;99.90;;;;;;5069290;28;20029;-46
2022/08/21 04:13:41;;;;;;;8.02;7.25;;;14.00;99.90;;;;;;5067009;28;20494;-49
2022/08/21 04:16:07;;;;;;;11.93;8.93;;;14.10;99.90;;;;;;5069336;28;20111;-48
2022/08/21 04:18:33;;;;;;;10.50;9.38;;;14.10;99.90;;;;;;5068522;28;20451;-47
2022/08/21 04:21:01;;;;;;;10.95;7.57;;;14.10;99.90;;;;;;5069813;28;20048;-48
2022/08/21 04:23:27;;;;;;;9.05;6.85;;;14.10;99.90;;;;;;5068568;28;20572;-47
2022/08/21 04:25:53;;;;;;;;;;;14.20;99.90;;;;;;5069593;28;20037;-47
2022/08/21 04:28:20;;;;;;;13.05;8.65;;;14.20;99.90;;;;;;5069651;28;20405;-48
2022/08/21 04:30:46;;;;;;;10.40;7.65;;;14.20;99.90;;;;;;5072618;28;20040;-48
2022/08/21 04:33:12;;;;;;;11.93;9.20;;;14.20;99.90;;;;;;5073091;28;20165;-48
2022/08/21 04:35:37;;;;;;;14.73;8.13;;;14.20;99.90;;;;;;5073296;28;20041;-47
2022/08/21 04:38:03;;;;;;;9.43;8.00;;;14.30;99.90;;;;;;5073094;28;20044;-47
2022/08/21 04:40:28;;;;;;;12.80;8.37;;;14.30;99.90;;;;;;5072461;28;20040;-47
2022/08/21 04:42:59;;;;;;;15.93;9.10;;;14.30;99.90;;;;;;5072211;28;20369;-47
2022/08/21 04:45:33;;;;;;;16.38;10.02;;;14.40;99.90;;;;;;5072452;28;20162;-47
2022/08/21 04:48:01;;;;;;;9.07;8.10;;;14.40;99.90;;;;;;5073001;28;20041;-49
2022/08/21 04:50:39;;;;;;;12.43;8.85;;;14.40;99.90;;;;;;5072415;28;20037;-47
2022/08/21 04:53:10;;;;;;;14.75;9.80;;;14.40;99.90;;;;;;5072268;28;20383;-47
2022/08/21 04:55:37;;;;;;;19.67;9.20;;;14.50;99.90;;;;;;5072053;28;20037;-47
2022/08/21 04:58:06;;;;;;;13.25;8.00;;;14.40;99.90;;;;;;5071832;28;20072;-48
2022/08/21 05:00:32;;;;;;;11.85;7.70;;;14.50;99.90;;;;;;5072588;28;20041;-48
2022/08/21 05:03:00;;;;;;;12.30;7.45;;;14.50;99.90;;;;;;5071955;28;20049;-48
2022/08/21 05:05:28;;;;;;;13.77;7.72;;;14.50;99.90;;;;;;5072522;28;20383;-49
2022/08/21 05:07:55;;;;;;;11.43;7.47;;;14.60;99.90;;;;;;5072024;28;20403;-47
2022/08/21 05:10:22;;;;;;;11.65;7.20;;;14.60;99.90;;;;;;5072062;28;20044;-47
2022/08/21 05:12:48;;;;;;;14.00;7.15;;;14.60;99.90;;;;;;5071535;28;20071;-48
2022/08/21 05:15:14;;;;;;;10.40;7.97;;;14.70;99.90;;;;;;5072147;28;20455;-47
2022/08/21 05:17:41;;;;;;;14.35;7.18;;;14.70;99.90;;;;;;5072064;28;20119;-48
2022/08/21 05:20:08;;;;;;;12.65;7.80;;;14.80;99.90;;;;;;5071950;28;20123;-48
2022/08/21 05:22:33;;;;;;;15.23;6.65;;;14.80;99.90;;;;;;5072024;28;20097;-48
2022/08/21 05:24:59;;;;;;;9.38;7.45;;;14.90;99.90;;;;;;5068300;28;20044;-49
2022/08/21 05:27:25;;;;;;;12.60;7.00;;;14.90;99.90;;;;;;5070304;28;20048;-47
2022/08/21 05:29:50;;;;;;;14.23;8.13;;;14.90;99.90;;;;;;5071920;28;20059;-48
2022/08/21 05:32:17;;;;;;;14.05;8.13;;;15.00;99.90;;;;;;5071765;28;20033;-48
2022/08/21 05:34:43;;;;;;;10.90;6.75;;;15.10;99.90;;;;;;5071198;28;20138;-48
2022/08/21 05:37:11;;;;;;;15.70;7.80;;;15.10;99.90;;;;;;5070294;28;20036;-47
2022/08/21 05:39:36;;;;;;;14.98;7.30;;;15.20;99.90;;;;;;5059174;28;20036;-48
2022/08/21 05:42:02;;;;;;;14.50;6.57;;;15.30;99.90;;;;;;5051557;28;20127;-48
2022/08/21 05:44:28;;;;;;;12.18;6.28;;;15.40;99.90;;;;;;5069701;28;20541;-47
2022/08/21 05:46:54;;;;;;;7.32;5.53;;;15.50;99.90;;;;;;5071687;28;20497;-47
2022/08/21 05:49:19;;;;;;;7.90;6.07;;;15.60;99.90;;;;;;5071629;28;20258;-48
2022/08/21 05:51:45;;;;;;;8.50;6.80;;;15.70;99.90;;;;;;5071716;28;20397;-47
2022/08/21 05:54:11;;;;;;;9.73;6.95;;;15.80;99.90;;;;;;5070953;28;20037;-47
2022/08/21 05:56:37;;;;;;;7.60;6.32;;;15.80;99.90;;;;;;5053483;28;20128;-47
2022/08/21 05:59:02;;;;;;;9.90;5.93;;;15.90;99.90;;;;;;5050425;28;20128;-48
2022/08/21 06:01:28;;;;;;;9.32;6.40;;;15.90;99.90;;;;;;5051670;28;20483;-49
2022/08/21 06:03:54;;;;;;;9.27;6.10;;;16.00;99.90;;;;;;5059013;28;20049;-49
2022/08/21 06:06:19;;;;;;;10.57;7.07;;;16.10;99.90;;;;;;5071257;28;20051;-48
2022/08/21 06:08:45;;;;;;;6.82;5.82;;;16.20;99.90;;;;;;5069283;28;20044;-47
2022/08/21 06:11:11;;;;;;;9.32;5.65;;;16.30;99.90;;;;;;5071438;28;20048;-47
2022/08/21 06:13:37;;;;;;;10.57;5.80;;;16.30;99.90;;;;;;5069671;28;20124;-49
2022/08/21 06:16:04;;;;;;;10.93;6.55;;;16.40;99.90;;;;;;5070990;28;20058;-48
2022/08/21 06:18:30;;;;;;;8.55;6.07;;;16.50;99.90;;;;;;5070768;28;20559;-48
2022/08/21 06:20:56;;;;;;;7.72;5.80;;;16.50;99.90;;;;;;5070979;28;20036;-48
2022/08/21 06:23:21;;;;;;;9.05;6.38;;;16.60;99.90;;;;;;5070711;28;20044;-48
2022/08/21 06:25:47;;;;;;;13.20;6.88;;;16.60;99.90;;;;;;5070666;28;20029;-48
2022/08/21 06:28:13;;;;;;;11.60;6.57;;;16.70;99.90;;;;;;5070446;28;20048;-48
2022/08/21 06:30:39;;;;;;;14.02;7.72;;;16.70;99.90;;;;;;5070319;28;20040;-48
2022/08/21 06:33:05;;;;;;;;;;;16.90;99.90;;;;;;5071104;28;20040;-48
2022/08/21 06:35:31;;;;;;;9.05;5.82;;;17.00;99.90;;;;;;5070563;28;19956;-47
2022/08/21 06:37:57;;;;;;;10.75;6.68;;;17.10;99.90;;;;;;5068680;28;20070;-48
2022/08/21 06:40:24;;;;;;;8.50;6.22;;;17.20;99.90;;;;;;5056649;28;20040;-48
2022/08/21 06:42:49;;;;;;;8.05;6.05;;;17.30;99.90;;;;;;5051180;28;20091;-48
2022/08/21 06:45:15;;;;;;;13.88;6.43;;;17.40;99.90;;;;;;5070833;28;20501;-48
2022/08/21 06:47:41;;;;;;;9.02;5.97;;;17.50;99.90;;;;;;5070245;28;20501;-48
2022/08/21 06:50:07;;;;;;;10.63;6.28;;;17.60;99.90;;;;;;5070605;28;20402;-48
2022/08/21 06:52:35;;;;;;;11.10;6.88;;;17.80;99.90;;;;;;5069820;28;20103;-48
2022/08/21 06:55:00;;;;;;;10.32;6.72;;;17.80;99.90;;;;;;5069341;28;20036;-48
2022/08/21 06:57:26;;;;;;;10.25;6.63;;;17.90;99.90;;;;;;5050111;28;20045;-47
2022/08/21 06:59:51;;;;;;;8.70;6.30;;;18.00;99.90;;;;;;5050562;28;20040;-48
2022/08/21 07:02:17;;;;;;;9.65;5.95;;;18.10;99.90;;;;;;5050301;28;20538;-48
2022/08/21 07:04:43;;;;;;;9.82;6.55;;;18.20;99.90;;;;;;5050425;28;20037;-53
2022/08/21 07:07:09;;;;;;;9.27;6.18;;;18.30;99.90;;;;;;5049619;28;20132;-50
2022/08/21 07:09:34;;;;;;;9.10;5.53;;;18.40;99.90;;;;;;5058907;28;20116;-50
2022/08/21 07:12:00;;;;;;;8.95;5.80;;;18.40;99.90;;;;;;5069876;28;20094;-51
2022/08/21 07:14:26;;;;;;;12.25;5.78;;;18.50;99.90;;;;;;5070344;28;20037;-52
2022/08/21 07:16:51;;;;;;;12.93;6.25;;;18.50;99.90;;;;;;5069821;28;20040;-51
2022/08/21 07:19:17;;;;;;;11.45;6.43;;;18.50;99.90;;;;;;5070035;28;20269;-54
2022/08/21 07:21:43;;;;;;;10.02;5.43;;;18.60;99.90;;;;;;5069260;28;20037;-55
2022/08/21 07:24:09;;;;;;;14.13;5.72;;;18.70;99.90;;;;;;5069685;28;20040;-53
2022/08/21 07:26:35;;;;;;;10.00;5.38;;;18.90;99.90;;;;;;5069723;28;20033;-55
2022/08/21 07:29:00;;;;;;;13.80;5.40;;;19.00;99.90;;;;;;5069680;28;20454;-54
2022/08/21 07:31:27;;;;;;;11.13;5.00;;;19.10;99.90;;;;;;5069714;28;20262;-56
2022/08/21 07:33:54;;;;;;;8.90;5.50;;;19.10;99.90;;;;;;5069714;28;20442;-53
2022/08/21 07:36:19;;;;;;;7.60;4.28;;;19.20;99.90;;;;;;5068996;28;20115;-55
2022/08/21 07:38:45;;;;;;;14.15;5.78;;;19.30;99.90;;;;;;5069981;28;20124;-53
2022/08/21 07:41:17;;;;;;;9.98;4.85;;;19.30;99.90;;;;;;5070017;28;20051;-53
2022/08/21 07:43:43;;;;;;;9.52;5.28;;;19.30;99.90;;;;;;5069715;28;20040;-49
2022/08/21 07:46:09;;;;;;;16.25;5.65;;;19.40;99.90;;;;;;5069652;28;20503;-55
2022/08/21 07:48:35;;;;;;;10.02;4.25;;;19.40;99.90;;;;;;5069461;28;20413;-56
2022/08/21 07:51:05;;;;;;;14.90;4.55;;;19.50;99.90;;;;;;5069291;28;20036;-56
2022/08/21 07:53:30;;;;;;;13.90;4.00;;;19.60;99.90;;;;;;5069176;28;20509;-54
2022/08/21 07:55:59;;;;;;;11.88;4.85;;;19.70;99.90;;;;;;5069842;28;20044;-52
2022/08/21 07:58:25;;;;;;;8.68;3.97;;;19.70;99.90;;;;;;5066049;28;20037;-54
2022/08/21 08:00:50;;;;;;;11.05;4.95;;;19.80;99.90;;;;;;5069527;28;20047;-55
2022/08/21 08:03:16;;;;;;;;;;;19.80;99.90;;;;;;5069749;28;20104;-56
2022/08/21 08:05:42;;;;;;;11.25;5.15;;;19.90;99.90;;;;;;5073670;28;19920;-56
2022/08/21 08:08:08;;;;;;;8.80;4.75;;;19.90;99.90;;;;;;5073342;28;20048;-58
2022/08/21 08:10:34;;;;;;;13.05;4.18;;;20.00;99.90;;;;;;5073865;28;20040;-55
2022/08/21 08:13:01;;;;;;;12.38;2.92;;;20.00;99.90;;;;;;5072691;28;20036;-55
2022/08/21 08:15:27;;;;;;;9.38;4.00;;;20.10;99.90;;;;;;5073365;28;20036;-55
2022/08/21 08:17:54;;;;;;;11.27;4.15;;;20.20;99.90;;;;;;5070962;28;20052;-56
2022/08/21 08:20:21;;;;;;;9.13;3.30;;;20.20;99.90;;;;;;5073326;28;20056;-53
2022/08/21 08:22:47;;;;;;;14.27;4.03;;;20.30;99.90;;;;;;5072255;28;20161;-56
2022/08/21 08:25:14;;;;;;;10.00;2.80;;;20.50;99.90;;;;;;5073065;28;20525;-53
2022/08/21 08:27:40;;;;;;;11.70;2.38;;;20.60;99.90;;;;;;5072564;28;20044;-50
2022/08/21 08:30:08;;;;;;;6.97;2.88;;;20.70;99.90;;;;;;5072976;28;20043;-55
2022/08/21 08:32:34;;;;;;;6.25;2.75;;;20.80;99.90;;;;;;5071971;28;20067;-52
2022/08/21 08:35:00;;;;;;;6.45;2.63;;;20.90;99.90;;;;;;5072700;28;20044;-50
2022/08/21 08:37:26;;;;;;;5.22;1.95;;;21.00;99.00;;;;;;5072318;28;20455;-55
2022/08/21 08:39:51;;;;;;;;;;;21.00;99.10;;;;;;5073214;28;20148;-53
2022/08/21 08:42:30;;;;;;;8.90;3.17;;;21.10;98.30;;;;;;5072628;28;19917;-54
2022/08/21 08:45:04;;;;;;;5.57;1.77;;;21.10;98.40;;;;;;5052482;28;20102;-51
2022/08/21 08:47:32;;;;;;;8.50;2.50;;;21.10;98.00;;;;;;5069335;28;20120;-51
2022/08/21 08:50:07;;;;;;;8.93;2.50;;;21.20;98.20;;;;;;5071326;28;20078;-55
2022/08/21 08:52:42;;;;;;;6.68;3.55;;;21.10;97.50;;;;;;5071716;28;20045;-52
2022/08/21 08:55:16;;;;;;;7.00;2.95;;;21.20;97.50;;;;;;5052945;28;20498;-54
2022/08/21 08:57:49;;;;;;;16.23;4.00;;;21.20;97.70;;;;;;5069962;28;20101;-53
2022/08/21 09:00:17;;;;;;;12.23;3.30;;;21.30;98.10;;;;;;5072834;28;20044;-54
2022/08/21 09:02:45;;;;;;;10.48;2.80;;;21.50;97.60;;;;;;5072141;28;20032;-54
2022/08/21 09:05:27;;;;;;;4.25;3.00;;;21.60;97.50;;;;;;5052842;28;20040;-51
2022/08/21 09:08:38;;;;;;;8.68;3.00;;;21.60;96.60;;;;;;5054340;28;20045;-52
2022/08/21 09:11:14;;;;;;;4.75;2.70;;;21.60;96.90;;;;;;5067035;28;20056;-53
2022/08/21 09:14:05;;;;;;;7.88;2.63;;;21.70;97.40;;;;;;5071167;28;20033;-54
2022/08/21 09:16:40;;;;;;;7.00;1.67;;;21.80;96.70;;;;;;5071824;28;20040;-56
2022/08/21 09:19:26;;;;;;;6.88;1.67;;;21.90;95.90;;;;;;5071759;28;20051;-53
2022/08/21 09:22:36;;;;;;;8.85;2.80;;;22.00;95.80;;;;;;5071964;28;20040;-56
2022/08/21 09:25:14;;;;;;;7.60;1.45;;;22.10;95.20;;;;;;5041204;28;20502;-55
2022/08/21 09:27:40;;;;;;;6.18;2.45;;;22.20;95.30;;;;;;5054213;28;20045;-56
2022/08/21 09:30:06;;;;;;;;;;;22.10;94.90;;;;;;5072348;28;20093;-55
2022/08/21 09:32:34;;;;;;;8.65;2.97;;;22.10;94.80;;;;;;5071296;28;19916;-54
2022/08/21 09:35:14;;;;;;;9.93;2.58;;;22.20;94.80;;;;;;5071583;28;20319;-52
2022/08/21 09:37:48;;;;;;;9.40;2.30;;;22.30;94.90;;;;;;5071556;28;20123;-56
2022/08/21 09:40:32;;;;;;;9.40;2.13;;;22.30;94.20;;;;;;5071414;28;20401;-52
2022/08/21 09:43:04;;;;;;;5.88;1.48;;;22.30;94.00;;;;;;5068118;28;20059;-51
2022/08/21 09:45:31;;;;;;;7.15;1.45;;;22.20;94.00;;;;;;5070051;28;20155;-56
2022/08/21 09:48:29;;;;;;;5.97;1.10;;;22.30;94.30;;;;;;5071654;28;20094;-53
2022/08/21 09:51:06;;;;;;;4.88;1.80;;;22.40;93.10;;;;;;5072072;28;20040;-52
2022/08/21 09:53:33;;;;;;;9.05;2.00;;;22.40;93.50;;;;;;5071333;28;20032;-52
2022/08/21 09:58:50;;;;;;;5.63;1.90;;;22.60;93.40;;;;;;5071182;28;20056;-52
2022/08/21 10:01:18;;;;;;;5.13;1.85;;;22.60;93.20;;;;;;5071392;28;20044;-57
2022/08/21 10:03:44;;;;;;;3.95;1.52;;;22.80;93.40;;;;;;5070726;28;20452;-49
2022/08/21 10:06:20;;;;;;;6.63;1.52;;;22.90;93.60;;;;;;5071104;28;20051;-52
2022/08/21 10:08:45;;;;;;;6.03;2.20;;;23.10;93.40;;;;;;5070654;28;20205;-50
2022/08/21 10:11:12;;;;;;;;;;;23.10;93.20;;;;;;5071847;28;20163;-48
2022/08/21 10:14:05;;;;;;;5.28;1.63;;;23.00;92.70;;;;;;5070895;28;20289;-50
2022/08/21 10:16:47;;;;;;;7.90;3.10;;;23.10;92.90;;;;;;5070899;28;20032;-48
2022/08/21 10:19:24;;;;;;;8.05;1.75;;;23.20;93.10;;;;;;5069884;28;20068;-48
2022/08/21 10:22:29;;;;;;;5.90;1.42;;;23.30;92.70;;;;;;5070979;28;20514;-48
2022/08/21 10:25:09;;;;;;;7.88;1.20;;;23.30;92.10;;;;;;5070424;28;20497;-48
2022/08/21 10:27:43;;;;;;;4.63;1.05;;;23.30;91.40;;;;;;5070077;28;20075;-48
2022/08/21 10:30:38;;;;;;;4.00;0.90;;;23.40;92.20;;;;;;5066410;28;20044;-47
2022/08/21 10:33:23;;;;;;;5.93;1.30;;;23.40;91.50;;;;;;5070464;28;20044;-48
2022/08/21 10:36:00;;;;;;;4.20;0.85;;;23.40;91.40;;;;;;5050885;28;20502;-49
2022/08/21 10:38:44;;;;;;;3.55;1.10;;;23.50;91.60;;;;;;5054419;28;20545;-48
2022/08/21 10:41:39;;;;;;;6.82;0.93;;;23.60;91.20;;;;;;5070803;28;20049;-48
2022/08/21 10:44:30;;;;;;;7.25;1.50;;;23.60;90.60;;;;;;5056228;28;20463;-48
2022/08/21 10:47:08;;;;;;;5.00;0.60;;;23.60;90.90;;;;;;5070449;28;20105;-48
2022/08/21 10:49:43;;;;;;;9.75;1.13;;;23.50;90.90;;;;;;5070320;28;20036;-47
2022/08/21 10:52:33;;;;;;;5.97;1.42;;;23.60;91.40;;;;;;5070187;28;20041;-48
2022/08/21 10:55:06;;;;;;;9.13;2.05;;;23.70;90.50;;;;;;5070053;28;20040;-46
2022/08/21 10:57:41;;;;;;;6.78;0.98;;;23.70;90.90;;;;;;5070359;28;20044;-48
2022/08/21 11:00:13;;;;;;;5.00;0.90;;;23.70;90.90;;;;;;5070032;28;20047;-47
2022/08/21 11:02:48;;;;;;;6.97;1.23;;;23.80;90.90;;;;;;5070014;28;20078;-49
2022/08/21 11:05:17;;;;;;;7.22;0.90;;;23.80;90.90;;;;;;5068949;28;20047;-48
2022/08/21 11:07:48;;;;;;;5.43;0.80;;;23.90;90.30;;;;;;5070045;28;20041;-48
2022/08/21 11:10:22;;;;;;;5.72;1.05;;;24.00;90.80;;;;;;5069845;28;20029;-50
2022/08/21 11:13:01;;;;;;;5.55;0.80;;;24.20;90.70;;;;;;5085763;28;20086;-48
2022/08/21 11:15:36;;;;;;;9.23;0.75;;;24.20;89.20;;;;;;5069996;28;20089;-49
2022/08/21 11:18:16;;;;;;;4.93;0.63;;;24.30;90.60;;;;;;5069843;28;20119;-47
2022/08/21 11:21:17;;;;;;;5.80;1.15;;;24.40;89.70;;;;;;5069474;28;20037;-48
2022/08/21 11:23:54;;;;;;;3.60;0.60;;;24.40;90.00;;;;;;5070064;28;20051;-47
2022/08/21 11:26:43;;;;;;;8.65;1.38;;;24.40;89.70;;;;;;5069755;28;20044;-47
2022/08/21 11:29:28;;;;;;;5.68;0.85;;;24.50;90.20;;;;;;5068635;28;20091;-48
2022/08/21 11:32:19;;;;;;;4.50;1.30;;;24.70;89.30;;;;;;5069716;28;20444;-48
2022/08/21 11:35:03;;;;;;;6.28;0.93;;;24.90;90.30;;;;;;5069982;28;20274;-48
2022/08/21 11:37:40;;;;;;;8.48;0.70;;;25.00;87.70;;;;;;5070022;28;20101;-48
2022/08/21 11:40:27;;;;;;;6.47;0.75;;;25.00;88.70;;;;;;5072988;28;20040;-45
2022/08/21 11:43:07;;;;;;;;;;;25.00;87.60;;;;;;5074226;28;20429;-45
2022/08/21 11:45:50;;;;;;;6.78;0.60;;;25.00;86.80;;;;;;5089079;28;19916;-44
2022/08/21 11:48:55;;;;;;;4.10;0.60;;;25.10;88.80;;;;;;5073284;28;20037;-47
2022/08/21 11:51:52;;;;;;;4.43;0.90;;;25.20;87.20;;;;;;5085613;28;20040;-43
2022/08/21 11:54:30;;;;;;;5.82;0.52;;;25.20;86.60;;;;;;5044236;28;20044;-45
2022/08/21 11:57:14;;;;;;;6.53;1.35;;;25.30;86.90;;;;;;5053407;28;20067;-46
2022/08/21 12:00:10;;;;;;;5.40;0.65;;;25.30;84.90;;;;;;5056366;28;20045;-44
2022/08/21 12:02:45;;;;;;;5.77;0.73;;;25.30;85.10;;;;;;5073469;28;20040;-46
2022/08/21 12:05:27;;;;;;;3.45;0.43;;;25.50;86.30;;;;;;5072896;28;20394;-44
2022/08/21 12:08:05;;;;;;;4.90;0.50;;;25.50;85.10;;;;;;5073262;28;20231;-44
2022/08/21 12:10:35;;;;;;;7.25;0.60;;;25.50;85.20;;;;;;5073604;28;20032;-46
2022/08/21 12:13:22;;;;;;;3.92;0.52;;;25.50;84.70;;;;;;5073082;28;20041;-44
2022/08/21 12:15:48;;;;;;;5.97;1.90;;;25.50;84.20;;;;;;5072403;28;20040;-44
2022/08/21 12:18:30;;;;;;;3.47;0.60;;;25.50;84.70;;;;;;5073238;28;20494;-44
2022/08/21 12:21:05;;;;;;;7.03;0.98;;;25.50;84.10;;;;;;5071718;28;20440;-46
2022/08/21 12:23:49;;;;;;;5.03;0.68;;;25.60;84.90;;;;;;5053065;28;20106;-44
2022/08/21 12:26:26;;;;;;;5.75;1.25;;;25.70;84.90;;;;;;5062051;28;20071;-44
2022/08/21 12:29:04;;;;;;;4.70;0.75;;;25.80;83.80;;;;;;5073245;28;20047;-45
2022/08/21 12:31:29;;;;;;;7.13;0.80;;;25.90;81.30;;;;;;5071798;28;20651;-45
2022/08/21 12:34:02;;;;;;;3.13;0.60;;;25.90;81.10;;;;;;5072758;28;20036;-45
2022/08/21 12:36:44;;;;;;;5.20;0.80;;;25.90;81.30;;;;;;5071278;28;20032;-45
2022/08/21 12:39:20;;;;;;;2.25;0.50;;;25.80;80.20;;;;;;5072119;28;20050;-44
2022/08/21 12:41:53;;;;;;;;;;;25.90;80.00;;;;;;5072629;28;20119;-44
2022/08/21 12:44:36;;;;;;;3.15;0.90;;;25.90;80.70;;;;;;5072097;28;19916;-45
2022/08/21 12:47:06;;;;;;;29.13;7.65;;;25.80;80.10;;;;;;5072344;28;20127;-46
2022/08/21 12:49:42;;;;;;;4.18;0.73;;;25.90;80.80;;;;;;5071916;28;20063;-46
2022/08/21 12:52:22;;;;;;;4.60;0.70;;;25.90;80.70;;;;;;5072424;28;20033;-46
2022/08/21 12:54:48;;;;;;;11.65;1.52;;;25.90;82.20;;;;;;5068406;28;20703;-45
2022/08/21 12:57:23;;;;;;;5.40;0.73;;;26.10;82.00;;;;;;5071800;28;20037;-46
2022/08/21 12:59:59;;;;;;;4.43;0.50;;;26.20;80.30;;;;;;5072784;28;20063;-46
2022/08/21 13:02:31;;;;;;;2.78;0.40;;;26.20;79.00;;;;;;5071952;28;20047;-47
2022/08/21 13:05:00;;;;;;;8.10;1.60;;;26.10;79.10;;;;;;5072366;28;20032;-49
2022/08/21 13:07:30;;;;;;;4.20;0.63;;;26.10;79.20;;;;;;5071592;28;20498;-49